Time;durP1;ratioP1;P1;durP2;ratioP2;P2;SDS_P1;SDS_P2;PMS_P1;PMS_P2;Temp;Humidity;BMP_temperature;BMP_pressure;BME280_temperature;BME280_humidity;BME280_pressure;Samples;Min_cycle;Max_cycle;Signal;HPM_P1;HPM_P2
2023/09/04 00:01:42;;;;;;;4.88;4.38;;;;;;;14.95;100.00;102735.16;5014179;28;20036;-82
2023/09/04 00:04:08;;;;;;;7.88;4.00;;;;;;;14.98;100.00;102748.53;5006364;28;20028;-82
2023/09/04 00:06:33;;;;;;;4.93;3.88;;;;;;;14.92;100.00;102745.16;5014187;28;20518;-82
2023/09/04 00:08:59;;;;;;;6.30;4.57;;;;;;;14.93;100.00;102738.34;4998547;28;20121;-82
2023/09/04 00:11:26;;;;;;;8.10;4.60;;;;;;;14.89;100.00;102737.44;5019428;28;20067;-82
2023/09/04 00:13:52;;;;;;;4.85;4.30;;;;;;;14.87;100.00;102739.78;5006760;28;20091;-82
2023/09/04 00:16:17;;;;;;;6.30;4.93;;;;;;;14.87;100.00;102745.44;4975893;28;20128;-82
2023/09/04 00:18:42;;;;;;;7.40;4.63;;;;;;;14.87;100.00;102738.97;4990165;28;20029;-83
2023/09/04 00:21:08;;;;;;;7.53;4.90;;;;;;;14.82;100.00;102743.69;4992808;28;20080;-82
2023/09/04 00:23:33;;;;;;;7.28;4.85;;;;;;;14.81;100.00;102742.03;5011624;28;20378;-82
2023/09/04 00:25:58;;;;;;;7.13;5.38;;;;;;;14.76;100.00;102745.16;5012889;28;20548;-82
2023/09/04 00:28:24;;;;;;;6.40;5.03;;;;;;;14.78;100.00;102742.78;4999387;28;20120;-82
2023/09/04 00:30:50;;;;;;;6.88;4.85;;;;;;;14.71;100.00;102738.94;5014982;28;20033;-82
2023/09/04 00:33:15;;;;;;;5.85;4.40;;;;;;;14.72;100.00;102737.78;5012455;28;20025;-80
2023/09/04 00:35:40;;;;;;;5.90;4.60;;;;;;;14.70;100.00;102743.78;5013238;28;20515;-81
2023/09/04 00:38:06;;;;;;;5.57;4.30;;;;;;;14.65;100.00;102738.38;5014806;28;21007;-81
2023/09/04 00:40:31;;;;;;;6.15;4.70;;;;;;;14.68;100.00;102742.50;4993952;28;20021;-81
2023/09/04 00:42:56;;;;;;;4.78;3.90;;;;;;;14.58;100.00;102739.00;4995760;28;20551;-80
2023/09/04 00:45:22;;;;;;;5.70;3.65;;;;;;;14.60;100.00;102735.84;5007861;28;20057;-83
2023/09/04 00:47:47;;;;;;;4.80;3.78;;;;;;;14.58;100.00;102744.66;5010772;28;20033;-82
2023/09/04 00:50:21;;;;;;;6.25;4.18;;;;;;;14.58;100.00;102743.84;4997109;28;20037;-82
2023/09/04 00:52:48;;;;;;;3.90;3.58;;;;;;;14.55;100.00;102744.53;5013049;28;20040;-80
2023/09/04 00:55:14;;;;;;;6.10;3.90;;;;;;;14.55;100.00;102742.56;5015820;28;20145;-82
2023/09/04 00:57:42;;;;;;;14.57;4.22;;;;;;;14.52;100.00;102739.59;5015181;28;20125;-81
2023/09/04 01:00:10;;;;;;;5.15;4.20;;;;;;;14.50;100.00;102741.97;4997169;28;20060;-82
2023/09/04 01:02:37;;;;;;;4.70;3.97;;;;;;;14.46;100.00;102736.22;5013291;28;20033;-81
2023/09/04 01:05:03;;;;;;;5.43;4.60;;;;;;;14.47;100.00;102734.25;5022947;28;20041;-81
2023/09/04 01:07:29;;;;;;;7.88;4.90;;;;;;;14.44;100.00;102730.13;5024956;28;20049;-81
2023/09/04 01:09:55;;;;;;;7.60;4.95;;;;;;;14.47;100.00;102720.97;5005693;28;20451;-81
2023/09/04 01:12:33;;;;;;;6.75;4.90;;;;;;;14.44;100.00;102716.03;5025578;28;20104;-81
2023/09/04 01:14:59;;;;;;;5.82;4.22;;;;;;;14.42;100.00;102718.41;4997112;28;20050;-81
2023/09/04 01:17:25;;;;;;;6.15;5.30;;;;;;;14.39;100.00;102719.94;4979707;28;20030;-82
2023/09/04 01:19:50;;;;;;;8.85;5.50;;;;;;;14.35;100.00;102724.66;4993845;28;20034;-81
2023/09/04 01:22:16;;;;;;;7.82;4.88;;;;;;;14.32;100.00;102731.00;4981244;28;20506;-81
2023/09/04 01:24:42;;;;;;;6.40;4.78;;;;;;;14.32;100.00;102725.38;4977457;28;20065;-81
2023/09/04 01:27:16;;;;;;;6.60;5.18;;;;;;;14.33;100.00;102715.75;4982909;28;20541;-81
2023/09/04 01:29:52;;;;;;;8.77;5.30;;;;;;;14.27;100.00;102710.72;4980108;28;20415;-82
2023/09/04 01:32:26;;;;;;;7.85;5.35;;;;;;;14.27;100.00;102720.00;4995660;28;20026;-80
2023/09/04 01:34:53;;;;;;;7.75;5.68;;;;;;;14.22;100.00;102714.63;4973771;28;20367;-83
2023/09/04 01:37:21;;;;;;;5.78;4.45;;;;;;;14.19;100.00;102720.97;4977105;28;20035;-82
2023/09/04 01:39:48;;;;;;;8.15;5.70;;;;;;;14.19;100.00;102712.53;4992227;28;20474;-82
2023/09/04 01:42:13;;;;;;;6.57;4.70;;;;;;;14.20;100.00;102712.16;4994274;28;20613;-82
2023/09/04 01:44:40;;;;;;;7.05;4.82;;;;;;;14.16;100.00;102708.41;4998153;28;20085;-82
2023/09/04 01:47:06;;;;;;;7.75;4.60;;;;;;;14.12;100.00;102701.84;4985419;28;20088;-82
2023/09/04 01:49:31;;;;;;;6.63;5.40;;;;;;;14.15;100.00;102698.34;4976957;28;20442;-82
2023/09/04 01:52:00;;;;;;;8.15;5.60;;;;;;;14.10;100.00;102697.78;4993826;28;20161;-82
2023/09/04 01:54:26;;;;;;;7.40;5.43;;;;;;;14.08;100.00;102697.31;4985499;28;20509;-81
2023/09/04 01:56:51;;;;;;;7.60;5.15;;;;;;;14.07;100.00;102696.50;4979049;28;20062;-81
2023/09/04 01:59:16;;;;;;;7.05;4.95;;;;;;;14.03;100.00;102701.19;4980713;28;20096;-81
2023/09/04 02:01:42;;;;;;;6.50;4.60;;;;;;;14.06;100.00;102697.66;4978383;28;20039;-81
2023/09/04 02:04:07;;;;;;;7.38;5.60;;;;;;;14.06;100.00;102702.47;4971378;28;20038;-82
2023/09/04 02:06:32;;;;;;;8.52;5.43;;;;;;;13.98;100.00;102693.03;4975338;28;20134;-81
2023/09/04 02:08:58;;;;;;;6.15;5.22;;;;;;;14.00;100.00;102699.13;4971808;28;20038;-82
2023/09/04 02:11:23;;;;;;;8.98;5.25;;;;;;;13.96;100.00;102701.81;4976817;28;20061;-82
2023/09/04 02:13:49;;;;;;;6.38;5.07;;;;;;;13.98;100.00;102693.84;4982718;28;20050;-82
2023/09/04 02:16:15;;;;;;;8.40;5.22;;;;;;;13.92;100.00;102689.63;4995426;28;20029;-82
2023/09/04 02:18:40;;;;;;;7.25;5.25;;;;;;;13.90;100.00;102685.53;4996085;28;20042;-81
2023/09/04 02:21:06;;;;;;;7.55;5.40;;;;;;;13.94;100.00;102692.09;4997180;28;20477;-81
2023/09/04 02:23:32;;;;;;;7.10;4.95;;;;;;;13.89;100.00;102695.97;4998233;28;20117;-81
2023/09/04 02:25:57;;;;;;;6.57;4.97;;;;;;;13.86;100.00;102696.69;5012076;28;20076;-81
2023/09/04 02:28:23;;;;;;;7.93;5.30;;;;;;;13.84;100.00;102693.41;5002420;28;20152;-82
2023/09/04 02:30:49;;;;;;;7.05;5.53;;;;;;;13.83;100.00;102691.78;4994436;28;20025;-81
2023/09/04 02:33:15;;;;;;;9.63;5.43;;;;;;;13.85;100.00;102695.06;4996754;28;20029;-81
2023/09/04 02:35:41;;;;;;;7.68;4.95;;;;;;;13.82;100.00;102704.19;4995630;28;20033;-81
2023/09/04 02:38:06;;;;;;;6.47;5.15;;;;;;;13.79;100.00;102696.47;4998367;28;20029;-81
2023/09/04 02:40:31;;;;;;;5.32;4.75;;;;;;;13.75;100.00;102698.38;4992839;28;20037;-81
2023/09/04 02:42:57;;;;;;;7.53;5.40;;;;;;;13.74;100.00;102691.91;4997776;28;20493;-81
2023/09/04 02:45:22;;;;;;;6.25;5.25;;;;;;;13.72;100.00;102691.44;5010398;28;20530;-81
2023/09/04 02:47:48;;;;;;;8.75;4.30;;;;;;;13.69;100.00;102694.16;4999701;28;20034;-83
2023/09/04 02:50:13;;;;;;;6.93;5.00;;;;;;;13.66;100.00;102694.84;4996190;28;20793;-82
2023/09/04 02:52:39;;;;;;;6.57;4.97;;;;;;;13.66;100.00;102694.84;4995693;28;20033;-82
2023/09/04 02:55:06;;;;;;;5.90;5.18;;;;;;;13.66;100.00;102694.84;5010906;28;20033;-82
2023/09/04 02:57:32;;;;;;;6.75;5.78;;;;;;;13.61;100.00;102681.84;4997197;28;20075;-82
2023/09/04 03:00:05;;;;;;;8.93;5.20;;;;;;;13.59;100.00;102685.00;5000824;28;20098;-82
2023/09/04 03:02:31;;;;;;;7.63;5.53;;;;;;;13.59;100.00;102701.91;4997466;28;20514;-82
2023/09/04 03:04:56;;;;;;;7.60;5.50;;;;;;;13.57;100.00;102692.19;4994958;28;20040;-81
2023/09/04 03:07:25;;;;;;;7.53;5.45;;;;;;;13.57;100.00;102697.81;5009633;28;20029;-82
2023/09/04 03:09:57;;;;;;;7.57;5.75;;;;;;;13.52;100.00;102690.44;4999621;28;20034;-81
2023/09/04 03:12:27;;;;;;;9.23;5.40;;;;;;;13.53;100.00;102694.06;4993573;28;20112;-81
2023/09/04 03:15:14;;;;;;;8.68;5.55;;;;;;;13.51;100.00;102697.22;5011962;28;20287;-81
2023/09/04 03:17:39;;;;;;;6.90;5.35;;;;;;;13.45;100.00;102689.38;5019518;28;20512;-81
2023/09/04 03:20:09;;;;;;;6.50;5.45;;;;;;;13.44;100.00;102685.75;5002354;28;20033;-82
2023/09/04 03:22:34;;;;;;;8.15;5.07;;;;;;;13.40;100.00;102687.63;5015727;28;20032;-81
2023/09/04 03:25:01;;;;;;;7.03;5.63;;;;;;;13.40;100.00;102684.81;4993086;28;20029;-81
2023/09/04 03:27:27;;;;;;;8.10;5.18;;;;;;;13.38;100.00;102687.97;4998966;28;20033;-81
2023/09/04 03:29:53;;;;;;;7.88;5.30;;;;;;;13.39;100.00;102689.63;4999437;28;20033;-80
2023/09/04 03:32:18;;;;;;;9.15;5.70;;;;;;;13.36;100.00;102676.25;5005392;28;20393;-81
2023/09/04 03:34:44;;;;;;;8.65;5.68;;;;;;;13.35;100.00;102682.25;4993726;28;20044;-81
2023/09/04 03:37:09;;;;;;;7.45;5.47;;;;;;;13.35;100.00;102685.06;5017620;28;22052;-81
2023/09/04 03:39:37;;;;;;;7.93;5.35;;;;;;;13.30;100.00;102674.03;5020654;28;20444;-81
2023/09/04 03:42:03;;;;;;;7.25;5.70;;;;;;;13.27;100.00;102671.91;5020357;28;20025;-82
2023/09/04 03:44:29;;;;;;;8.57;5.40;;;;;;;13.26;100.00;102676.72;5022761;28;20109;-81
2023/09/04 03:46:54;;;;;;;8.57;6.28;;;;;;;13.26;100.00;102679.53;5016142;28;20440;-81
2023/09/04 03:49:19;;;;;;;6.93;5.20;;;;;;;13.27;100.00;102683.16;5002187;28;20052;-81
2023/09/04 03:51:45;;;;;;;7.20;4.82;;;;;;;13.18;100.00;102677.66;5016385;28;20870;-81
2023/09/04 03:54:10;;;;;;;6.78;5.13;;;;;;;13.19;100.00;102666.06;5020227;28;20039;-81
2023/09/04 03:56:36;;;;;;;8.55;5.20;;;;;;;13.17;100.00;102670.38;5020957;28;20033;-81
2023/09/04 03:59:01;;;;;;;8.57;5.28;;;;;;;13.18;100.00;102667.22;5018746;28;20389;-80
2023/09/04 04:01:28;;;;;;;6.38;4.70;;;;;;;13.16;100.00;102663.97;5016264;28;20371;-81
2023/09/04 04:03:53;;;;;;;8.25;5.38;;;;;;;13.13;100.00;102670.25;5019571;28;20466;-82
2023/09/04 04:06:22;;;;;;;6.43;4.53;;;;;;;13.14;100.00;102671.91;5016985;28;20033;-81
2023/09/04 04:08:49;;;;;;;6.05;4.63;;;;;;;13.12;100.00;102674.25;4991114;28;20090;-81
2023/09/04 04:11:15;;;;;;;8.30;4.47;;;;;;;13.10;100.00;102670.97;5012103;28;20033;-81
2023/09/04 04:13:41;;;;;;;5.70;4.57;;;;;;;13.11;100.00;102668.97;5010353;28;20050;-81
2023/09/04 04:16:06;;;;;;;7.70;5.57;;;;;;;13.06;100.00;102670.03;4985697;28;20912;-81
2023/09/04 04:18:31;;;;;;;5.45;4.45;;;;;;;13.03;100.00;102665.13;4997369;28;20139;-81
2023/09/04 04:20:57;;;;;;;6.80;4.55;;;;;;;13.01;100.00;102673.09;5014410;28;20497;-80
2023/09/04 04:23:23;;;;;;;5.20;4.60;;;;;;;13.03;100.00;102676.38;4988894;28;20048;-81
2023/09/04 04:25:49;;;;;;;5.13;4.30;;;;;;;13.01;100.00;102673.09;4996271;28;20493;-80
2023/09/04 04:28:18;;;;;;;5.38;4.38;;;;;;;12.98;100.00;102662.53;5019991;28;20496;-81
2023/09/04 04:30:44;;;;;;;5.35;4.20;;;;;;;12.96;100.00;102671.31;5010143;28;20045;-80
2023/09/04 04:33:09;;;;;;;6.05;4.55;;;;;;;12.96;100.00;102659.25;4997144;28;20042;-80
2023/09/04 04:35:34;;;;;;;6.93;4.13;;;;;;;12.95;100.00;102663.25;5015268;28;20025;-82
2023/09/04 04:38:00;;;;;;;4.95;4.10;;;;;;;12.90;100.00;102663.47;5014310;28;20362;-82
2023/09/04 04:40:26;;;;;;;5.30;4.22;;;;;;;12.90;100.00;102660.66;4998228;28;20025;-82
2023/09/04 04:42:51;;;;;;;5.70;4.40;;;;;;;12.87;100.00;102650.94;4997389;28;20473;-82
2023/09/04 04:45:16;;;;;;;7.30;4.20;;;;;;;12.90;100.00;102652.22;4990631;28;20098;-82
2023/09/04 04:47:42;;;;;;;5.28;3.75;;;;;;;12.88;100.00;102643.34;5014440;28;20041;-82
2023/09/04 04:50:11;;;;;;;5.68;4.50;;;;;;;12.81;100.00;102635.50;5017565;28;20132;-82
2023/09/04 04:52:36;;;;;;;5.25;4.40;;;;;;;12.80;100.00;102639.47;4999117;28;20545;-82
2023/09/04 04:55:02;;;;;;;4.45;3.90;;;;;;;12.81;100.00;102638.31;5017039;28;20036;-82
2023/09/04 04:57:28;;;;;;;6.43;3.92;;;;;;;12.82;100.00;102652.00;5001282;28;20038;-83
2023/09/04 04:59:53;;;;;;;5.20;4.00;;;;;;;12.81;100.00;102641.91;5017234;28;20049;-82
2023/09/04 05:02:20;;;;;;;4.57;3.90;;;;;;;12.77;100.00;102649.41;5018615;28;20645;-82
2023/09/04 05:04:47;;;;;;;5.85;4.43;;;;;;;12.76;100.00;102644.97;5021958;28;20156;-84
2023/09/04 05:07:13;;;;;;;5.75;4.75;;;;;;;12.77;100.00;102640.97;5002283;28;20080;-82
2023/09/04 05:09:38;;;;;;;5.18;3.88;;;;;;;12.73;100.00;102634.44;5019354;28;20056;-81
2023/09/04 05:12:04;;;;;;;4.53;4.00;;;;;;;12.73;100.00;102634.44;5000642;28;20032;-81
2023/09/04 05:14:30;;;;;;;5.32;4.28;;;;;;;12.74;100.00;102635.25;5018315;28;20080;-80
2023/09/04 05:16:55;;;;;;;5.45;4.03;;;;;;;12.75;100.00;102634.88;5020429;28;20556;-81
2023/09/04 05:19:21;;;;;;;5.50;4.32;;;;;;;12.73;100.00;102634.44;5003935;28;20152;-81
2023/09/04 05:21:47;;;;;;;5.55;3.67;;;;;;;12.77;100.00;102634.53;5019383;28;20041;-81
2023/09/04 05:24:13;;;;;;;5.95;4.32;;;;;;;12.75;100.00;102642.50;5004147;28;20112;-81
2023/09/04 05:26:38;;;;;;;4.75;4.00;;;;;;;12.74;100.00;102629.66;5025798;28;20030;-81
2023/09/04 05:29:04;;;;;;;5.35;4.30;;;;;;;12.78;100.00;102639.81;5027603;28;20033;-81
2023/09/04 05:31:29;;;;;;;4.57;3.58;;;;;;;12.74;100.00;102624.84;5021117;28;20072;-82
2023/09/04 05:33:54;;;;;;;6.18;4.47;;;;;;;12.75;100.00;102632.09;5022581;28;20029;-81
2023/09/04 05:36:20;;;;;;;5.07;3.47;;;;;;;12.78;100.00;102634.22;5009854;28;20037;-82
2023/09/04 05:38:46;;;;;;;6.43;4.93;;;;;;;12.77;100.00;102634.53;5019385;28;20099;-82
2023/09/04 05:41:12;;;;;;;5.47;4.22;;;;;;;12.79;100.00;102638.66;5018998;28;20026;-82
2023/09/04 05:43:37;;;;;;;5.32;4.47;;;;;;;12.77;100.00;102626.94;5025167;28;20409;-82
2023/09/04 05:46:03;;;;;;;8.93;4.97;;;;;;;12.78;100.00;102620.16;5023686;28;20121;-82
2023/09/04 05:48:30;;;;;;;5.63;4.50;;;;;;;12.79;100.00;102630.22;5008058;28;20087;-82
2023/09/04 05:50:55;;;;;;;8.05;5.15;;;;;;;12.84;100.00;102629.19;5021305;28;20437;-82
2023/09/04 05:53:23;;;;;;;7.35;5.07;;;;;;;12.83;100.00;102630.34;5009787;28;20091;-82
2023/09/04 05:56:11;;;;;;;5.78;5.03;;;;;;;12.87;100.00;102636.09;5026810;28;20150;-82
2023/09/04 05:58:45;;;;;;;6.40;5.18;;;;;;;12.87;100.00;102630.47;5023414;28;20108;-82
2023/09/04 06:01:11;;;;;;;7.40;5.70;;;;;;;12.86;100.00;102628.81;5020228;28;20029;-82
2023/09/04 06:03:37;;;;;;;3.90;2.55;;;;;;;14.56;100.00;102636.28;5015338;28;20040;-87
2023/09/04 06:06:02;;;;;;;5.80;3.85;;;;;;;15.48;100.00;102641.72;5002170;28;20457;-90
2023/09/04 06:08:30;;;;;;;6.30;4.28;;;;;;;15.48;100.00;102650.19;5001637;28;20623;-84
2023/09/04 06:10:56;;;;;;;9.88;5.30;;;;;;;15.68;100.00;102645.38;5016884;28;20470;-88
2023/09/04 06:13:21;;;;;;;15.32;6.55;;;;;;;15.56;100.00;102647.16;5006248;28;20063;-83
2023/09/04 06:15:49;;;;;;;10.60;6.93;;;;;;;14.15;100.00;102644.03;4998087;28;20033;-82
2023/09/04 06:18:15;;;;;;;6.97;6.00;;;;;;;14.16;100.00;102654.09;5020968;28;20021;-82
2023/09/04 06:20:41;;;;;;;8.20;5.30;;;;;;;15.67;100.00;102657.88;5018021;28;20033;-82
2023/09/04 06:23:06;;;;;;;11.50;7.65;;;;;;;14.73;100.00;102655.66;5001027;28;20075;-82
2023/09/04 06:25:32;;;;;;;13.45;8.27;;;;;;;14.17;100.00;102650.94;5013192;28;20037;-82
2023/09/04 06:27:58;;;;;;;12.93;8.43;;;;;;;13.99;100.00;102643.97;5014275;28;20030;-81
2023/09/04 06:30:23;;;;;;;14.10;8.77;;;;;;;13.77;100.00;102648.97;5022381;28;20045;-81
2023/09/04 06:32:49;;;;;;;11.73;8.23;;;;;;;13.65;100.00;102639.75;5000457;28;20163;-81
2023/09/04 06:35:14;;;;;;;14.77;7.35;;;;;;;13.56;100.00;102642.72;5017208;28;20160;-81
2023/09/04 06:37:40;;;;;;;14.43;8.05;;;;;;;13.56;100.00;102643.53;5025633;28;20040;-81
2023/09/04 06:40:06;;;;;;;14.73;8.27;;;;;;;13.49;100.00;102642.47;4998651;28;20033;-81
2023/09/04 06:42:31;;;;;;;10.57;8.60;;;;;;;13.44;100.00;102640.75;5022142;28;20172;-81
2023/09/04 06:44:57;;;;;;;16.20;10.05;;;;;;;13.39;100.00;102636.19;5018933;28;20037;-81
2023/09/04 06:47:22;;;;;;;14.98;10.23;;;;;;;13.48;100.00;102646.50;5021128;28;20029;-81
2023/09/04 06:49:47;;;;;;;16.70;9.98;;;;;;;13.50;100.00;102644.94;5019584;28;20029;-81
2023/09/04 06:52:13;;;;;;;16.77;10.85;;;;;;;13.55;100.00;102641.88;5020943;28;20026;-82
2023/09/04 06:54:38;;;;;;;19.48;11.60;;;;;;;13.62;100.00;102649.75;5000304;28;20042;-81
2023/09/04 06:57:04;;;;;;;14.75;10.38;;;;;;;13.58;100.00;102646.00;4999338;28;20064;-81
2023/09/04 06:59:29;;;;;;;15.13;10.05;;;;;;;13.57;100.00;102645.16;5021218;28;20144;-81
2023/09/04 07:01:54;;;;;;;15.43;10.77;;;;;;;13.63;100.00;102640.91;5017552;28;20047;-81
2023/09/04 07:04:20;;;;;;;17.33;10.55;;;;;;;13.68;100.00;102653.09;5019999;28;20025;-81
2023/09/04 07:06:45;;;;;;;16.83;10.30;;;;;;;13.74;100.00;102654.50;5022348;28;20037;-81
2023/09/04 07:09:10;;;;;;;16.30;11.18;;;;;;;13.85;100.00;102658.47;5006106;28;20033;-82
2023/09/04 07:11:36;;;;;;;15.55;10.55;;;;;;;13.80;100.00;102650.25;5019277;28;20056;-81
2023/09/04 07:14:02;;;;;;;19.02;11.45;;;;;;;13.96;100.00;102659.59;5018594;28;20041;-82
2023/09/04 07:16:27;;;;;;;15.10;11.35;;;;;;;14.19;100.00;102653.41;5024118;28;20029;-81
2023/09/04 07:18:54;;;;;;;15.00;10.55;;;;;;;14.34;100.00;102651.78;5005189;28;20036;-80
2023/09/04 07:21:19;;;;;;;18.02;11.43;;;;;;;14.61;100.00;102652.94;5017613;28;20180;-81
2023/09/04 07:23:46;;;;;;;15.93;10.90;;;;;;;14.72;100.00;102656.84;5024388;28;20033;-81
2023/09/04 07:26:11;;;;;;;15.88;10.63;;;;;;;14.90;100.00;102656.47;5025054;28;20060;-81
2023/09/04 07:28:36;;;;;;;15.27;10.32;;;;;;;15.07;100.00;102653.25;5006486;28;20568;-80
2023/09/04 07:31:16;;;;;;;13.43;10.18;;;;;;;15.16;100.00;102662.38;5003694;28;20384;-81
2023/09/04 07:33:42;;;;;;;14.65;10.27;;;;;;;15.23;100.00;102659.72;5023926;28;20492;-81
2023/09/04 07:36:07;;;;;;;14.32;9.95;;;;;;;15.15;100.00;102660.72;5012540;28;20036;-80
2023/09/04 07:38:32;;;;;;;15.75;9.93;;;;;;;15.22;100.00;102658.09;5033578;28;20053;-81
2023/09/04 07:41:03;;;;;;;14.88;9.85;;;;;;;15.35;100.00;102655.97;5010658;28;20037;-81
2023/09/04 07:43:30;;;;;;;13.45;9.85;;;;;;;15.61;100.00;102651.69;5024497;28;20470;-79
2023/09/04 07:45:56;;;;;;;12.55;9.75;;;;;;;15.35;100.00;102657.97;5005004;28;20029;-79
2023/09/04 07:48:22;;;;;;;16.42;10.45;;;;;;;15.45;100.00;102660.19;5029615;28;20388;-79
2023/09/04 07:50:48;;;;;;;15.45;10.65;;;;;;;15.84;100.00;102658.28;5024850;28;20028;-79
2023/09/04 07:53:14;;;;;;;15.13;9.93;;;;;;;15.83;100.00;102650.16;5026519;28;20048;-79
2023/09/04 07:55:42;;;;;;;13.80;10.18;;;;;;;16.25;100.00;102663.53;5025861;28;20494;-78
2023/09/04 07:58:07;;;;;;;12.43;7.88;;;;;;;16.46;100.00;102660.28;5027983;28;20417;-79
2023/09/04 08:00:33;;;;;;;11.15;7.85;;;;;;;16.50;100.00;102663.19;5023861;28;20091;-79
2023/09/04 08:02:59;;;;;;;11.80;7.57;;;;;;;16.65;100.00;102662.25;5025564;28;20043;-78
2023/09/04 08:05:24;;;;;;;10.40;7.38;;;;;;;16.44;100.00;102657.84;5004645;28;20144;-79
2023/09/04 08:07:50;;;;;;;8.70;6.82;;;;;;;16.26;100.00;102657.50;5006450;28;20032;-78
2023/09/04 08:10:15;;;;;;;11.93;8.38;;;;;;;16.55;100.00;102663.69;5023183;28;20170;-78
2023/09/04 08:12:41;;;;;;;9.80;7.60;;;;;;;16.67;100.00;102660.69;5023623;28;20072;-79
2023/09/04 08:15:08;;;;;;;9.07;7.10;;;;;;;17.00;100.00;102652.78;5023471;28;20064;-78
2023/09/04 08:17:34;;;;;;;11.15;7.32;;;;;;;16.92;100.00;102646.19;5007582;28;20117;-79
2023/09/04 08:20:00;;;;;;;10.93;7.13;;;;;;;17.05;100.00;102658.94;5022936;28;20553;-79
2023/09/04 08:22:26;;;;;;;8.60;6.65;;;;;;;17.26;100.00;102635.78;5005958;28;20043;-79
2023/09/04 08:24:54;;;;;;;8.70;6.90;;;;;;;17.31;100.00;102647.97;5019861;28;20032;-80
2023/09/04 08:27:19;;;;;;;11.18;6.57;;;;;;;17.49;100.00;102646.22;5022998;28;20036;-78
2023/09/04 08:29:45;;;;;;;8.73;6.47;;;;;;;17.36;100.00;102653.31;5026425;28;20029;-80
2023/09/04 08:32:10;;;;;;;11.50;6.47;;;;;;;17.45;100.00;102653.84;5022044;28;20033;-80
2023/09/04 08:34:35;;;;;;;9.43;6.47;;;;;;;17.67;100.00;102654.97;5025208;28;20026;-79
2023/09/04 08:37:01;;;;;;;8.90;6.30;;;;;;;17.79;100.00;102648.22;5022974;28;20025;-79
2023/09/04 08:39:26;;;;;;;8.40;6.53;;;;;;;17.98;100.00;102647.28;5021040;28;20036;-80
2023/09/04 08:41:52;;;;;;;8.73;6.47;;;;;;;17.93;100.00;102647.63;5020176;28;20055;-80
2023/09/04 08:44:18;;;;;;;10.18;6.90;;;;;;;18.09;100.00;102648.25;5007429;28;20025;-78
2023/09/04 08:46:46;;;;;;;9.73;5.75;;;;;;;18.06;100.00;102638.47;5025997;28;20017;-78
2023/09/04 08:49:13;;;;;;;7.22;5.50;;;;;;;18.25;100.00;102645.16;5008822;28;20026;-80
2023/09/04 08:51:38;;;;;;;7.78;5.43;;;;;;;18.47;100.00;102634.88;5022519;28;20052;-80
2023/09/04 08:54:04;;;;;;;8.10;5.43;;;;;;;18.35;100.00;102647.31;5027195;28;20021;-80
2023/09/04 08:56:31;;;;;;;6.90;5.30;;;;;;;18.66;100.00;102642.34;5002901;28;20029;-82
2023/09/04 08:58:56;;;;;;;5.57;4.50;;;;;;;18.97;100.00;102637.34;5010831;28;20037;-81
2023/09/04 09:01:26;;;;;;;7.07;4.68;;;;;;;19.03;100.00;102642.25;5024288;28;20029;-81
2023/09/04 09:03:52;;;;;;;4.18;3.25;;;;;;;19.21;100.00;102639.56;5009569;28;20028;-82
2023/09/04 09:06:17;;;;;;;6.30;4.28;;;;;;;19.25;100.00;102640.41;5021143;28;20140;-82
2023/09/04 09:08:45;;;;;;;5.40;4.30;;;;;;;19.35;100.00;102638.81;5007400;28;20517;-81
2023/09/04 09:11:13;;;;;;;4.15;3.65;;;;;;;19.48;100.00;102631.59;5011210;28;20029;-82
2023/09/04 09:13:39;;;;;;;6.40;4.47;;;;;;;19.46;100.00;102636.06;5008971;28;20172;-82
2023/09/04 09:16:04;;;;;;;7.82;3.92;;;;;;;19.55;100.00;102632.84;5028220;28;20519;-82
2023/09/04 09:18:40;;;;;;;7.43;3.72;;;;;;;19.30;100.00;102630.69;5027530;28;20088;-82
2023/09/04 09:21:28;;;;;;;7.35;4.57;;;;;;;19.61;100.00;102634.13;4998290;28;20076;-81
2023/09/04 09:24:11;;;;;;;5.85;3.40;;;;;;;19.49;100.00;102643.78;5021617;28;20069;-82
2023/09/04 09:26:41;;;;;;;5.55;4.03;;;;;;;19.76;100.00;102647.19;5025682;28;20095;-82
2023/09/04 09:29:08;;;;;;;6.90;4.28;;;;;;;19.85;100.00;102643.97;5022138;28;20473;-82
2023/09/04 09:31:35;;;;;;;5.97;3.60;;;;;;;20.01;100.00;102644.44;5011749;28;20042;-82
2023/09/04 09:34:01;;;;;;;6.85;4.35;;;;;;;20.21;100.00;102639.22;5027886;28;20028;-82
2023/09/04 09:36:28;;;;;;;4.40;3.70;;;;;;;20.36;100.00;102640.06;5022112;28;20022;-81
2023/09/04 09:38:54;;;;;;;5.45;3.92;;;;;;;20.35;98.79;102629.09;5024904;28;20378;-82
2023/09/04 09:41:19;;;;;;;5.72;3.55;;;;;;;20.44;99.73;102636.00;5025640;28;20025;-81
2023/09/04 09:43:45;;;;;;;7.22;3.25;;;;;;;20.45;98.99;102622.59;5021503;28;20091;-82
2023/09/04 09:46:10;;;;;;;6.65;3.42;;;;;;;20.51;98.82;102623.81;5021927;28;20063;-81
2023/09/04 09:48:36;;;;;;;7.45;3.40;;;;;;;20.35;95.59;102627.06;5006223;28;20060;-82
2023/09/04 09:51:06;;;;;;;5.57;4.15;;;;;;;20.41;97.00;102618.97;5005223;28;20114;-81
2023/09/04 09:53:51;;;;;;;6.18;3.47;;;;;;;20.31;99.74;102617.72;5003762;28;20559;-82
2023/09/04 09:56:18;;;;;;;5.43;3.58;;;;;;;20.71;98.62;102610.84;5023174;28;20025;-80
2023/09/04 09:58:49;;;;;;;4.05;3.22;;;;;;;20.78;96.59;102607.19;5019779;28;20188;-80
2023/09/04 10:01:17;;;;;;;7.93;3.90;;;;;;;20.86;95.29;102597.44;5018930;28;20033;-80
2023/09/04 10:03:47;;;;;;;4.55;3.15;;;;;;;20.89;96.23;102598.66;5025342;28;20078;-80
2023/09/04 10:06:34;;;;;;;4.00;3.30;;;;;;;21.04;92.77;102597.41;5022515;28;20535;-80
2023/09/04 10:08:59;;;;;;;5.22;3.63;;;;;;;21.18;92.39;102610.81;5012388;28;20588;-79
2023/09/04 10:11:25;;;;;;;4.55;3.40;;;;;;;21.25;93.33;102599.41;5028296;28;20025;-80
2023/09/04 10:14:07;;;;;;;5.68;3.65;;;;;;;21.09;94.52;102601.88;5022735;28;20428;-79
2023/09/04 10:16:40;;;;;;;6.22;3.47;;;;;;;21.24;93.86;102596.97;5019210;28;20465;-80
2023/09/04 10:19:09;;;;;;;;;;;;;;;21.34;90.35;102596.13;5006064;28;20031;-79
2023/09/04 10:21:40;;;;;;;4.10;3.20;;;;;;;21.49;90.38;102597.72;5022347;28;19991;-80
2023/09/04 10:24:11;;;;;;;5.65;2.97;;;;;;;21.62;90.77;102600.13;5024108;28;20068;-79
2023/09/04 10:26:45;;;;;;;4.43;2.72;;;;;;;21.57;87.91;102598.53;5013994;28;20567;-80
2023/09/04 10:29:17;;;;;;;7.75;3.80;;;;;;;21.71;85.66;102604.16;5006474;28;20030;-79
2023/09/04 10:31:44;;;;;;;4.88;2.75;;;;;;;21.87;85.77;102608.56;5023756;28;20103;-79
2023/09/04 10:34:10;;;;;;;4.22;3.15;;;;;;;21.94;85.49;102608.50;5030809;28;20029;-80
2023/09/04 10:36:38;;;;;;;5.00;2.70;;;;;;;21.90;83.45;102605.69;5008377;28;20061;-80
2023/09/04 10:39:05;;;;;;;4.68;2.60;;;;;;;22.13;81.88;102615.75;5022334;28;20859;-80
2023/09/04 10:41:31;;;;;;;5.20;3.88;;;;;;;22.38;83.11;102612.75;5012329;28;20025;-80
2023/09/04 10:43:57;;;;;;;4.63;3.08;;;;;;;22.06;82.12;102605.19;5023459;28;20091;-80
2023/09/04 10:46:23;;;;;;;5.03;2.85;;;;;;;22.07;81.43;102598.28;5023815;28;20448;-79
2023/09/04 10:48:50;;;;;;;3.88;3.17;;;;;;;22.27;79.87;102590.00;5023786;28;20269;-80
2023/09/04 10:51:31;;;;;;;4.50;2.97;;;;;;;22.32;81.55;102586.69;5012612;28;20478;-80
2023/09/04 10:53:58;;;;;;;4.95;2.95;;;;;;;22.50;79.17;102578.00;5005012;28;20553;-81
2023/09/04 10:56:24;;;;;;;3.17;2.88;;;;;;;22.84;81.50;102585.88;5020400;28;20500;-80
2023/09/04 10:59:00;;;;;;;3.45;2.78;;;;;;;22.97;80.86;102591.06;5009012;28;20021;-80
2023/09/04 11:01:37;;;;;;;4.82;3.30;;;;;;;22.53;78.45;102590.63;5012554;28;20036;-80
2023/09/04 11:04:07;;;;;;;3.40;2.70;;;;;;;22.75;82.51;102588.41;5018043;28;20029;-80
2023/09/04 11:06:40;;;;;;;3.28;2.65;;;;;;;22.82;77.59;102585.47;5018954;28;20385;-79
2023/09/04 11:09:09;;;;;;;8.35;2.70;;;;;;;22.80;76.28;102579.38;5004439;28;20045;-80
2023/09/04 11:11:35;;;;;;;4.18;3.03;;;;;;;23.00;76.91;102578.78;5022090;28;20359;-82
2023/09/04 11:14:09;;;;;;;5.60;2.72;;;;;;;22.88;77.54;102566.66;5026916;28;20449;-81
2023/09/04 11:16:44;;;;;;;3.80;2.60;;;;;;;23.12;75.25;102573.34;5018775;28;20052;-80